createdAt,value
2018-06-27T00:01:46.331Z,16.10
2018-06-27T00:04:15.411Z,14.77
2018-06-27T00:06:44.463Z,16.20
2018-06-27T00:09:13.619Z,16.00
2018-06-27T00:11:42.808Z,16.40
2018-06-27T00:14:11.840Z,17.60
2018-06-27T00:16:41.338Z,17.30
2018-06-27T00:19:10.413Z,17.57
2018-06-27T00:21:39.456Z,17.20
2018-06-27T00:24:08.484Z,16.87
2018-06-27T00:26:40.344Z,16.80
2018-06-27T00:29:09.417Z,16.80
2018-06-27T00:31:38.460Z,16.53
2018-06-27T00:34:07.488Z,17.73
2018-06-27T00:36:36.553Z,18.80
2018-06-27T00:39:08.336Z,16.30
2018-06-27T00:41:37.588Z,17.50
2018-06-27T00:44:06.649Z,16.03
2018-06-27T00:46:36.293Z,17.53
2018-06-27T00:49:05.748Z,16.77
2018-06-27T00:51:35.403Z,16.93
2018-06-27T00:54:08.804Z,18.07
2018-06-27T00:56:41.807Z,17.07
2018-06-27T00:59:11.060Z,18.20
2018-06-27T01:01:40.823Z,18.33
2018-06-27T01:04:09.915Z,17.30
2018-06-27T01:06:38.983Z,18.63
2018-06-27T01:09:09.086Z,18.60
2018-06-27T01:11:38.190Z,18.43
2018-06-27T01:14:07.255Z,19.67
2018-06-27T01:16:36.308Z,18.30
2018-06-27T01:19:07.016Z,19.07
2018-06-27T01:21:36.047Z,19.30
2018-06-27T01:24:05.069Z,19.40
2018-06-27T01:26:34.140Z,19.03
2018-06-27T01:29:03.300Z,19.57
2018-06-27T01:31:34.311Z,18.67
2018-06-27T01:34:04.138Z,19.60
2018-06-27T01:36:34.493Z,18.60
2018-06-27T01:39:03.862Z,19.20
2018-06-27T01:41:32.928Z,19.80
2018-06-27T01:44:02.000Z,19.53
2018-06-27T01:48:57.319Z,20.43
2018-06-27T01:51:26.844Z,21.77
2018-06-27T01:53:55.807Z,19.80
2018-06-27T01:56:24.762Z,21.13
2018-06-27T01:58:54.494Z,21.47
2018-06-27T02:01:24.724Z,21.37
2018-06-27T02:03:53.660Z,22.10
2018-06-27T02:06:22.637Z,21.33
2018-06-27T02:08:51.584Z,22.37
2018-06-27T02:11:20.562Z,20.93
2018-06-27T02:13:49.953Z,20.50
2018-06-27T02:16:20.342Z,21.60
2018-06-27T02:18:49.303Z,19.93
2018-06-27T02:21:18.328Z,20.13
2018-06-27T02:23:48.097Z,21.70
2018-06-27T02:26:17.068Z,21.30
2018-06-27T02:28:46.007Z,20.80
2018-06-27T02:31:14.971Z,20.33
2018-06-27T02:33:43.926Z,20.53
2018-06-27T02:36:14.026Z,20.10
2018-06-27T02:38:42.986Z,20.90
2018-06-27T02:41:12.000Z,20.30
2018-06-27T02:43:40.932Z,19.93
2018-06-27T02:46:09.950Z,21.43
2018-06-27T02:48:40.263Z,20.33
2018-06-27T02:51:09.274Z,21.23
2018-06-27T02:53:39.083Z,21.70
2018-06-27T02:56:10.591Z,21.23
2018-06-27T02:58:39.621Z,21.93
2018-06-27T03:01:09.753Z,20.80
2018-06-27T03:03:38.723Z,21.50
2018-06-27T03:06:08.470Z,20.70
2018-06-27T03:08:38.521Z,21.43
2018-06-27T03:11:07.559Z,21.80
2018-06-27T03:13:36.504Z,21.20
2018-06-27T03:16:05.539Z,23.63
2018-06-27T03:18:34.690Z,20.90
2018-06-27T03:21:03.687Z,21.47
2018-06-27T03:23:33.593Z,23.17
2018-06-27T03:26:03.730Z,22.27
2018-06-27T03:28:32.717Z,20.37
2018-06-27T03:31:01.659Z,22.23
2018-06-27T03:33:30.651Z,23.90
2018-06-27T03:35:59.597Z,22.27
2018-06-27T03:38:28.571Z,25.60
2018-06-27T03:40:57.513Z,22.53
2018-06-27T03:43:27.410Z,22.13
2018-06-27T03:45:56.382Z,23.07
2018-06-27T03:48:26.263Z,24.17
2018-06-27T03:50:55.247Z,24.32
2018-06-27T03:53:24.226Z,24.27
2018-06-27T03:55:53.200Z,24.73
2018-06-27T03:58:22.206Z,24.03
2018-06-27T04:00:51.137Z,23.47
2018-06-27T04:03:20.139Z,23.60
2018-06-27T04:05:49.091Z,22.07
2018-06-27T04:08:18.074Z,22.17
2018-06-27T04:10:48.469Z,26.10
2018-06-27T04:13:20.504Z,22.23
2018-06-27T04:15:52.970Z,22.87
2018-06-27T04:18:21.969Z,21.83
2018-06-27T04:20:50.929Z,24.10
2018-06-27T04:23:19.953Z,23.83
2018-06-27T04:25:48.919Z,25.37
2018-06-27T04:28:17.890Z,24.13
2018-06-27T04:30:46.847Z,24.40
2018-06-27T04:33:15.822Z,24.07
2018-06-27T04:35:48.983Z,25.20
2018-06-27T04:38:18.250Z,25.07
2018-06-27T04:40:47.532Z,26.40
2018-06-27T04:43:16.728Z,25.13
2018-06-27T04:45:45.734Z,25.90
2018-06-27T04:48:15.713Z,25.10
2018-06-27T04:50:44.702Z,24.53
2018-06-27T04:53:14.507Z,26.07
2018-06-27T04:55:44.484Z,22.90
2018-06-27T04:58:13.469Z,25.70
2018-06-27T05:00:42.435Z,25.07
2018-06-27T05:03:11.492Z,27.40
2018-06-27T05:05:40.538Z,26.37
2018-06-27T05:08:09.502Z,25.63
2018-06-27T05:10:38.490Z,23.93
2018-06-27T05:13:07.565Z,23.33
2018-06-27T05:15:37.425Z,24.93
2018-06-27T05:18:06.488Z,25.10
2018-06-27T05:20:36.084Z,26.70
2018-06-27T05:23:05.204Z,28.03
2018-06-27T05:25:34.190Z,25.50
2018-06-27T05:28:03.287Z,24.70
2018-06-27T05:30:32.322Z,25.07
2018-06-27T05:33:01.410Z,26.20
2018-06-27T05:35:30.468Z,23.27
2018-06-27T05:37:59.498Z,24.80
2018-06-27T05:40:28.470Z,24.30
2018-06-27T05:42:58.148Z,22.43
2018-06-27T05:45:27.125Z,22.80
2018-06-27T05:47:56.074Z,24.13
2018-06-27T05:50:40.891Z,23.50
2018-06-27T05:53:10.663Z,24.10
2018-06-27T05:55:40.101Z,23.17
2018-06-27T05:58:09.221Z,26.90
2018-06-27T06:00:41.974Z,22.97
2018-06-27T06:03:10.918Z,22.90
2018-06-27T06:05:39.902Z,24.83
2018-06-27T06:08:08.867Z,24.37
2018-06-27T06:10:38.289Z,24.00
2018-06-27T06:13:10.441Z,24.27
2018-06-27T06:15:39.464Z,24.73
2018-06-27T06:18:08.404Z,23.23
2018-06-27T06:20:37.411Z,24.67
2018-06-27T06:23:06.369Z,21.43
2018-06-27T06:25:35.369Z,20.70
2018-06-27T06:28:04.346Z,20.73
2018-06-27T06:30:33.335Z,20.90
2018-06-27T06:33:02.291Z,22.33
2018-06-27T06:35:33.648Z,20.60
2018-06-27T06:38:02.612Z,21.27
2018-06-27T06:40:31.587Z,22.47
2018-06-27T06:43:00.633Z,23.10
2018-06-27T06:45:30.019Z,20.30
2018-06-27T06:48:00.145Z,20.37
2018-06-27T06:50:29.114Z,20.53
2018-06-27T06:52:58.061Z,19.53
2018-06-27T06:55:27.044Z,19.87
2018-06-27T06:57:55.990Z,19.17
2018-06-27T07:00:25.751Z,17.93
2018-06-27T07:02:54.938Z,19.03
2018-06-27T07:05:24.160Z,19.53
2018-06-27T07:07:54.118Z,18.30
2018-06-27T07:10:23.388Z,17.53
2018-06-27T07:12:52.561Z,18.30
2018-06-27T07:15:21.779Z,17.37
2018-06-27T07:17:50.998Z,16.30
2018-06-27T07:20:20.854Z,16.80
2018-06-27T07:22:50.059Z,14.60
2018-06-27T07:25:19.265Z,15.70
2018-06-27T07:27:51.131Z,16.83
2018-06-27T07:30:20.370Z,14.97
2018-06-27T07:32:49.583Z,15.20
2018-06-27T07:35:18.775Z,15.70
2018-06-27T07:37:47.968Z,15.53
2018-06-27T07:40:17.233Z,14.67
2018-06-27T07:42:46.449Z,13.30
2018-06-27T07:45:15.628Z,12.43
2018-06-27T07:47:44.869Z,13.07
2018-06-27T07:50:16.499Z,12.07
2018-06-27T07:52:45.697Z,12.50
2018-06-27T07:55:16.141Z,11.47
2018-06-27T07:57:45.332Z,11.63
2018-06-27T08:00:14.521Z,9.70
2018-06-27T08:02:43.731Z,8.57
2018-06-27T08:05:14.146Z,6.90
2018-06-27T08:07:42.984Z,6.40
2018-06-27T08:10:11.739Z,6.10
2018-06-27T08:12:40.583Z,4.70
2018-06-27T08:15:09.331Z,5.20
2018-06-27T08:17:38.089Z,5.33
2018-06-27T08:20:07.700Z,5.10
2018-06-27T08:22:36.426Z,4.90
2018-06-27T08:25:05.659Z,5.30
2018-06-27T08:27:34.456Z,5.33
2018-06-27T08:30:04.572Z,5.90
2018-06-27T08:32:33.680Z,6.57
2018-06-27T08:35:03.058Z,5.67
2018-06-27T08:37:32.237Z,6.10
2018-06-27T08:40:01.854Z,6.93
2018-06-27T08:42:31.021Z,5.47
2018-06-27T08:45:00.698Z,5.67
2018-06-27T08:47:30.237Z,5.73
2018-06-27T08:49:59.500Z,6.70
2018-06-27T08:52:28.687Z,7.40
2018-06-27T08:54:59.409Z,6.53
2018-06-27T08:57:28.629Z,5.93
2018-06-27T08:59:57.834Z,6.23
2018-06-27T09:02:27.044Z,6.40
2018-06-27T09:04:58.068Z,6.80
2018-06-27T09:07:27.253Z,6.33
2018-06-27T09:09:56.429Z,5.90
2018-06-27T09:12:25.641Z,6.80
2018-06-27T09:14:54.826Z,6.43
2018-06-27T09:17:24.086Z,6.77
2018-06-27T09:19:53.351Z,6.33
2018-06-27T09:22:22.609Z,5.77
2018-06-27T09:24:51.799Z,5.70
2018-06-27T09:27:21.026Z,5.97
2018-06-27T09:29:50.921Z,5.90
2018-06-27T09:32:21.279Z,6.83
2018-06-27T09:34:50.961Z,5.40
2018-06-27T09:37:20.161Z,6.43
2018-06-27T09:39:49.848Z,5.23
2018-06-27T09:45:13.938Z,4.60
2018-06-27T09:47:42.926Z,4.43
2018-06-27T09:50:11.954Z,4.30
2018-06-27T09:52:40.952Z,5.00
2018-06-27T09:55:09.957Z,5.20
2018-06-27T09:57:40.156Z,4.50
2018-06-27T10:00:13.373Z,4.40
2018-06-27T10:02:42.372Z,5.10
2018-06-27T10:05:11.357Z,4.87
2018-06-27T10:07:40.422Z,4.80
2018-06-27T10:10:10.108Z,4.70
2018-06-27T10:12:39.104Z,4.20
2018-06-27T10:15:09.176Z,4.10
2018-06-27T10:17:38.804Z,3.83
2018-06-27T10:20:07.812Z,3.43
2018-06-27T10:22:39.768Z,4.00
2018-06-27T10:25:09.657Z,3.07
2018-06-27T10:27:38.756Z,2.47
2018-06-27T10:30:07.840Z,2.53
2018-06-27T10:32:36.861Z,2.40
2018-06-27T10:35:06.271Z,2.17
2018-06-27T10:37:36.247Z,2.43
2018-06-27T10:40:06.777Z,2.60
2018-06-27T10:42:35.840Z,2.50
2018-06-27T10:45:04.958Z,2.07
2018-06-27T10:47:34.425Z,2.43
2018-06-27T10:50:03.432Z,2.83
2018-06-27T10:52:33.896Z,2.70
2018-06-27T10:55:07.152Z,3.20
2018-06-27T10:57:36.942Z,3.40
2018-06-27T11:00:07.220Z,2.87
2018-06-27T11:02:37.821Z,2.43
2018-06-27T11:05:06.843Z,3.00
2018-06-27T11:07:36.277Z,3.03
2018-06-27T11:10:05.387Z,3.07
2018-06-27T11:12:35.609Z,2.80
2018-06-27T11:15:06.152Z,3.33
2018-06-27T11:17:35.250Z,3.50
2018-06-27T11:20:05.330Z,2.67
2018-06-27T11:22:35.180Z,3.10
2018-06-27T11:25:14.019Z,3.10
2018-06-27T11:27:42.987Z,2.97
2018-06-27T11:30:11.940Z,2.43
2018-06-27T11:32:41.846Z,2.80
2018-06-27T11:35:14.599Z,2.70
2018-06-27T11:37:43.553Z,2.70
2018-06-27T11:40:12.497Z,2.50
2018-06-27T11:42:42.134Z,2.60
2018-06-27T11:45:13.907Z,3.00
2018-06-27T11:47:43.335Z,2.90
2018-06-27T11:50:12.780Z,2.67
2018-06-27T11:52:41.768Z,2.43
2018-06-27T11:55:11.799Z,2.50
2018-06-27T11:57:42.170Z,2.50
2018-06-27T12:00:11.183Z,2.90
2018-06-27T12:02:40.421Z,2.50
2018-06-27T12:05:10.764Z,2.60
2018-06-27T12:07:40.457Z,2.70
2018-06-27T12:10:09.784Z,2.87
2018-06-27T12:12:39.937Z,2.80
2018-06-27T12:15:08.896Z,2.53
2018-06-27T12:17:37.934Z,2.90
2018-06-27T12:20:07.390Z,2.50
2018-06-27T12:22:36.383Z,2.57
2018-06-27T12:25:05.797Z,2.23
2018-06-27T12:27:34.918Z,3.27
2018-06-27T12:30:05.322Z,2.90
2018-06-27T12:32:34.391Z,2.70
2018-06-27T12:35:03.269Z,3.10
2018-06-27T12:37:33.140Z,2.93
2018-06-27T12:40:02.120Z,3.17
2018-06-27T12:42:31.708Z,2.80
2018-06-27T12:45:00.674Z,2.90
2018-06-27T12:47:29.338Z,2.40
2018-06-27T12:49:57.992Z,2.40
2018-06-27T12:52:26.720Z,2.60
2018-06-27T12:55:01.984Z,2.60
2018-06-27T12:57:31.764Z,2.60
2018-06-27T13:00:00.560Z,2.13
2018-06-27T13:02:29.466Z,2.50
2018-06-27T13:04:58.650Z,2.90
2018-06-27T13:07:28.745Z,2.50
2018-06-27T13:09:57.540Z,2.27
2018-06-27T13:12:26.317Z,2.07
2018-06-27T13:14:56.920Z,2.60
2018-06-27T13:17:26.127Z,2.57
2018-06-27T13:19:55.164Z,2.87
2018-06-27T13:22:24.126Z,2.67
2018-06-27T13:24:53.087Z,2.80
2018-06-27T13:27:22.071Z,2.63
2018-06-27T13:29:51.060Z,2.60
2018-06-27T13:32:21.141Z,2.70
2018-06-27T13:34:50.147Z,2.20
2018-06-27T13:37:19.148Z,2.80
2018-06-27T13:39:51.746Z,2.37
2018-06-27T13:42:22.336Z,2.90
2018-06-27T13:44:51.302Z,2.30
2018-06-27T13:47:20.654Z,2.00
2018-06-27T13:49:50.249Z,1.80
2018-06-27T13:52:19.814Z,2.50
2018-06-27T13:54:54.184Z,2.07
2018-06-27T13:57:24.889Z,1.90
2018-06-27T13:59:53.975Z,1.80
2018-06-27T14:02:23.799Z,1.67
2018-06-27T14:04:55.567Z,1.87
2018-06-27T14:07:28.166Z,1.80
2018-06-27T14:09:57.143Z,1.87
2018-06-27T14:12:27.080Z,1.70
2018-06-27T14:14:57.396Z,2.00
2018-06-27T14:17:26.357Z,1.97
2018-06-27T14:19:56.398Z,1.80
2018-06-27T14:22:25.400Z,2.07
2018-06-27T14:24:55.160Z,1.47
2018-06-27T14:27:24.402Z,2.00
2018-06-27T14:29:53.829Z,1.90
2018-06-27T14:32:24.049Z,2.10
2018-06-27T14:34:53.003Z,2.20
2018-06-27T14:37:21.959Z,1.70
2018-06-27T14:39:51.052Z,2.00
2018-06-27T14:42:20.126Z,2.03
2018-06-27T14:44:49.099Z,2.20
2018-06-27T14:47:18.022Z,2.00
2018-06-27T14:49:48.017Z,2.03
2018-06-27T14:52:18.457Z,1.90
2018-06-27T14:54:50.115Z,2.37
2018-06-27T14:57:19.467Z,1.67
2018-06-27T14:59:49.331Z,1.80
2018-06-27T15:02:18.322Z,2.17
2018-06-27T15:04:47.619Z,1.97
2018-06-27T15:07:26.438Z,2.13
2018-06-27T15:09:55.423Z,1.80
2018-06-27T15:12:24.892Z,1.90
2018-06-27T15:14:53.896Z,2.40
2018-06-27T15:17:22.911Z,2.00
2018-06-27T15:19:51.951Z,1.77
2018-06-27T15:22:20.917Z,1.97
2018-06-27T15:24:49.872Z,1.80
2018-06-27T15:27:18.798Z,2.10
2018-06-27T15:29:49.019Z,2.23
2018-06-27T15:32:17.971Z,1.90
2018-06-27T15:34:46.955Z,2.23
2018-06-27T15:37:16.395Z,2.13
2018-06-27T15:39:45.363Z,2.00
2018-06-27T15:42:15.263Z,2.23
2018-06-27T15:44:44.247Z,2.40
2018-06-27T15:47:18.678Z,2.40
2018-06-27T15:49:47.717Z,2.10
2018-06-27T15:52:16.683Z,2.10
2018-06-27T15:54:45.707Z,2.03
2018-06-27T15:57:15.777Z,1.90
2018-06-27T15:59:54.475Z,1.97
2018-06-27T16:02:23.571Z,1.73
2018-06-27T16:04:53.138Z,2.27
2018-06-27T16:07:22.123Z,2.13
2018-06-27T16:09:51.618Z,2.00
2018-06-27T16:12:20.587Z,2.00
2018-06-27T16:14:49.548Z,2.20
2018-06-27T16:17:18.669Z,2.40
2018-06-27T16:19:47.527Z,1.70
2018-06-27T16:22:16.566Z,2.03
2018-06-27T16:24:45.559Z,2.10
2018-06-27T16:27:14.716Z,2.30
2018-06-27T16:29:43.669Z,1.97
2018-06-27T16:32:12.965Z,2.00
2018-06-27T16:34:41.967Z,2.10
2018-06-27T16:37:11.069Z,2.00
2018-06-27T16:39:40.806Z,1.73
2018-06-27T16:42:09.963Z,1.67
2018-06-27T16:44:39.332Z,1.73
2018-06-27T16:47:08.345Z,1.60
2018-06-27T16:49:36.998Z,1.83
2018-06-27T16:52:05.975Z,1.97
2018-06-27T16:54:35.701Z,1.73
2018-06-27T16:57:04.715Z,1.40
2018-06-27T16:59:34.149Z,1.93
2018-06-27T17:02:04.268Z,1.63
2018-06-27T17:04:33.235Z,1.83
2018-06-27T17:07:02.389Z,1.93
2018-06-27T17:09:31.355Z,1.80
2018-06-27T17:12:01.204Z,1.90
2018-06-27T17:14:30.177Z,1.73
2018-06-27T17:16:59.202Z,1.73
2018-06-27T17:19:28.355Z,1.80
2018-06-27T17:21:57.367Z,1.90
2018-06-27T17:24:26.307Z,1.60
2018-06-27T17:26:58.932Z,1.60
2018-06-27T17:29:27.987Z,1.97
2018-06-27T17:32:05.373Z,1.80
2018-06-27T17:34:35.284Z,1.77
2018-06-27T17:37:04.430Z,2.10
2018-06-27T17:39:33.813Z,1.70
2018-06-27T17:42:04.730Z,1.80
2018-06-27T17:44:33.903Z,1.70
2018-06-27T17:47:04.063Z,1.60
2018-06-27T17:49:34.038Z,1.93
2018-06-27T17:52:03.046Z,3.43
2018-06-27T17:54:32.091Z,1.70
2018-06-27T17:57:01.635Z,1.67
2018-06-27T17:59:30.911Z,1.80
2018-06-27T18:02:00.821Z,1.80
2018-06-27T18:04:30.028Z,1.90
2018-06-27T18:06:58.991Z,1.70
2018-06-27T18:09:27.937Z,1.83
2018-06-27T18:11:57.675Z,1.80
2018-06-27T18:14:26.560Z,1.60
2018-06-27T18:16:55.951Z,1.70
2018-06-27T18:19:25.175Z,1.83
2018-06-27T18:21:54.168Z,1.90
2018-06-27T18:24:23.471Z,1.50
2018-06-27T18:26:52.910Z,1.77
2018-06-27T18:29:22.027Z,1.93
2018-06-27T18:31:51.001Z,2.03
2018-06-27T18:34:20.057Z,1.70
2018-06-27T18:36:49.644Z,2.00
2018-06-27T18:39:18.647Z,1.73
2018-06-27T18:41:48.448Z,2.17
2018-06-27T18:44:17.381Z,2.00
2018-06-27T18:46:46.343Z,2.33
2018-06-27T18:49:15.295Z,1.83
2018-06-27T18:51:43.979Z,2.10
2018-06-27T18:54:12.833Z,2.00
2018-06-27T18:56:43.138Z,1.93
2018-06-27T18:59:12.129Z,1.80
2018-06-27T19:01:41.088Z,2.03
2018-06-27T19:04:10.048Z,1.93
2018-06-27T19:06:39.371Z,2.10
2018-06-27T19:09:20.811Z,2.10
2018-06-27T19:11:50.235Z,2.30
2018-06-27T19:14:19.305Z,2.50
2018-06-27T19:16:48.855Z,2.10
2018-06-27T19:19:17.906Z,2.20
2018-06-27T19:21:47.091Z,2.50
2018-06-27T19:24:16.100Z,2.10
2018-06-27T19:26:45.944Z,2.10
2018-06-27T19:29:16.799Z,2.27
2018-06-27T19:31:47.448Z,2.37
2018-06-27T19:34:16.443Z,2.27
2018-06-27T19:36:45.472Z,2.30
2018-06-27T19:39:14.487Z,2.43
2018-06-27T19:41:43.429Z,2.30
2018-06-27T19:44:35.868Z,2.50
2018-06-27T19:47:04.929Z,2.30
2018-06-27T19:49:34.663Z,2.30
2018-06-27T19:52:07.002Z,2.47
2018-06-27T19:54:35.988Z,2.40
2018-06-27T19:57:04.962Z,2.60
2018-06-27T19:59:33.952Z,2.50
2018-06-27T20:02:02.966Z,2.90
2018-06-27T20:04:32.789Z,2.70
2018-06-27T20:07:01.771Z,3.17
2018-06-27T20:09:32.097Z,2.67
2018-06-27T20:12:01.035Z,2.37
2018-06-27T20:14:30.056Z,2.70
2018-06-27T20:17:00.503Z,2.97
2018-06-27T20:19:29.624Z,3.07
2018-06-27T20:21:58.616Z,2.90
2018-06-27T20:24:28.858Z,3.30
2018-06-27T20:26:57.799Z,3.23
2018-06-27T20:29:27.400Z,2.93
2018-06-27T20:31:56.338Z,3.00
2018-06-27T20:34:25.295Z,2.80
2018-06-27T20:36:54.262Z,2.80
2018-06-27T20:39:26.764Z,3.10
2018-06-27T20:41:55.879Z,3.10
2018-06-27T20:44:24.862Z,2.90
2018-06-27T20:46:55.535Z,2.80
2018-06-27T20:49:25.242Z,3.07
2018-06-27T20:51:54.188Z,3.47
2018-06-27T20:54:23.200Z,3.07
2018-06-27T20:56:52.989Z,2.70
2018-06-27T20:59:22.451Z,3.17
2018-06-27T21:01:51.458Z,3.10
2018-06-27T21:04:21.246Z,3.27
2018-06-27T21:06:52.115Z,3.57
2018-06-27T21:09:21.117Z,3.27
2018-06-27T21:11:50.172Z,2.93
2018-06-27T21:14:19.129Z,3.37
2018-06-27T21:16:48.313Z,3.40
2018-06-27T21:19:19.210Z,3.50
2018-06-27T21:21:48.181Z,4.07
2018-06-27T21:24:19.723Z,3.50
2018-06-27T21:26:48.680Z,3.77
2018-06-27T21:29:19.203Z,4.10
2018-06-27T21:31:48.397Z,4.10
2018-06-27T21:34:17.362Z,4.27
2018-06-27T21:36:46.398Z,3.87
2018-06-27T21:39:16.697Z,4.17
2018-06-27T21:41:46.068Z,3.67
2018-06-27T21:44:15.373Z,4.13
2018-06-27T21:46:44.546Z,3.40
2018-06-27T21:49:14.413Z,3.80
2018-06-27T21:51:43.353Z,4.50
2018-06-27T21:54:12.425Z,3.80
2018-06-27T21:56:41.386Z,3.80
2018-06-27T21:59:13.243Z,4.10
2018-06-27T22:01:43.479Z,3.50
2018-06-27T22:04:13.798Z,4.90
2018-06-27T22:06:43.131Z,4.53
2018-06-27T22:09:12.877Z,4.73
2018-06-27T22:11:42.031Z,4.30
2018-06-27T22:14:11.007Z,4.83
2018-06-27T22:16:40.331Z,4.80
2018-06-27T22:19:10.329Z,4.60
2018-06-27T22:21:43.464Z,4.80
2018-06-27T22:24:12.425Z,4.50
2018-06-27T22:26:42.500Z,4.70
2018-06-27T22:29:14.294Z,4.50
2018-06-27T22:31:43.227Z,5.20
2018-06-27T22:34:13.061Z,5.20
2018-06-27T22:36:42.004Z,4.60
2018-06-27T22:39:11.958Z,4.57
2018-06-27T22:41:41.250Z,4.83
2018-06-27T22:44:10.321Z,5.27
2018-06-27T22:46:39.289Z,5.30
2018-06-27T22:49:08.524Z,4.80
2018-06-27T22:51:37.522Z,5.23
2018-06-27T22:54:06.558Z,5.23
2018-06-27T22:56:35.787Z,5.97
2018-06-27T22:59:04.738Z,4.67
2018-06-27T23:01:34.637Z,5.27
2018-06-27T23:04:03.669Z,4.93
2018-06-27T23:06:32.671Z,5.43
2018-06-27T23:09:01.732Z,5.73
2018-06-27T23:11:31.607Z,5.40
2018-06-27T23:14:01.401Z,5.13
2018-06-27T23:16:31.980Z,5.30
2018-06-27T23:19:00.971Z,5.50
2018-06-27T23:21:29.983Z,4.93
2018-06-27T23:23:59.475Z,4.60
2018-06-27T23:26:28.447Z,4.97
2018-06-27T23:28:59.285Z,4.80
2018-06-27T23:31:28.258Z,4.73
2018-06-27T23:33:57.237Z,4.90
2018-06-27T23:36:26.339Z,4.50
2018-06-27T23:38:55.372Z,4.57
2018-06-27T23:41:24.718Z,4.53
2018-06-27T23:43:53.705Z,4.53
2018-06-27T23:46:22.689Z,4.70
2018-06-27T23:48:52.803Z,5.27
2018-06-27T23:51:21.927Z,4.70
2018-06-27T23:53:50.866Z,4.80
2018-06-27T23:56:20.242Z,4.57
2018-06-27T23:58:49.182Z,5.03
